Desbiens, Canada
Current Conditions -  °F | °C
As of 10:00 AM on Saturday 25 Oct 2014 (Local Time) from CYRJ Reporting Station
Scattered Clouds Scattered Clouds  
Wind Chill: 46°   Ceiling: Unl
Heat Index: 46°   Visibility: 40mi
Dew Point: 30°   Wind: 2mph
Humidity: 53%   Direction: 90°E
Pressure: 29.6"   Gusts: NA
Location:  48.42°N, 71.95°W
Report Text: CYRJ 251400Z 09002KT 40SM SCT080 SCT220 08/M01 A2960 RMK AC3CI1 SLP028
Loading
Personal Weather Stations






























Interactive Weather Map
Tropical Storm Tracking
New forecast layout! Learn more

10-Day Weather Forecast

Advertisements
Track Severe Weather on mobile